Terminal Aerodrome Forecast
Issued by NWS

Home | Current Version | Previous Version | Graphics & Text | Print | Product List | Glossary On
Versions: 1 2 3 4 5 6 7 8 9 10 11 12 13 14 15 16 17
000
FTUS43 KMPX 182320
TAFRWF
TAF
KRWF 182320Z 1900/1924 02007KT P6SM FEW150
     FM191000 05004KT 6SM BR SKC
     FM191300 12008KT P6SM FEW250
     FM192100 15014G21KT P6SM BKN070 OVC250=

USA.gov is the U.S. government's official web portal to all federal, state and local government web resources and services.